Argenta, Illinois
Current Conditions -  °F | °C
As of 3:54 AM on Saturday 22 Nov 2014 (Local Time) from KDEC Reporting Station
Overcast Overcast  
Wind Chill: 31°   Ceiling: 4900
Heat Index: 39°   Visibility: 10mi
Dew Point: 31°   Wind: 13mph
Humidity: 73%   Direction: 190°S
Pressure: 30.14"   Gusts: NA
Location:  39.98°N, 88.82°W
Report Text: KDEC 220954Z AUTO 19011KT 10SM BKN049 BKN070 OVC085 04/M01 A3014 RMK AO2 SLP210 T00391006 TSNO
Loading
Personal Weather Stations






























Interactive Weather Map New forecast layout! Learn more

10-Day Weather Forecast

Advertisements
Track Severe Weather on mobile